sensor_id;sensor_type;location;lat;lon;timestamp;P1;durP1;ratioP1;P2;durP2;ratioP2
11086;SDS011;5597;47.588;9.642;2023-04-01T00:01:58;1.43;;;0.60;;
11086;SDS011;5597;47.588;9.642;2023-04-01T00:04:24;0.80;;;0.50;;
11086;SDS011;5597;47.588;9.642;2023-04-01T00:06:50;1.57;;;0.30;;
11086;SDS011;5597;47.588;9.642;2023-04-01T00:09:16;1.10;;;0.50;;
11086;SDS011;5597;47.588;9.642;2023-04-01T00:11:42;1.27;;;0.60;;
11086;SDS011;5597;47.588;9.642;2023-04-01T00:14:09;0.87;;;0.50;;
11086;SDS011;5597;47.588;9.642;2023-04-01T00:16:35;0.60;;;0.50;;
11086;SDS011;5597;47.588;9.642;2023-04-01T00:19:01;0.77;;;0.43;;
11086;SDS011;5597;47.588;9.642;2023-04-01T00:21:27;0.77;;;0.50;;
11086;SDS011;5597;47.588;9.642;2023-04-01T00:23:53;1.60;;;0.50;;
11086;SDS011;5597;47.588;9.642;2023-04-01T00:26:18;1.10;;;0.43;;
11086;SDS011;5597;47.588;9.642;2023-04-01T00:28:54;0.80;;;0.47;;
11086;SDS011;5597;47.588;9.642;2023-04-01T00:31:20;1.43;;;0.57;;
11086;SDS011;5597;47.588;9.642;2023-04-01T00:33:46;0.77;;;0.50;;
11086;SDS011;5597;47.588;9.642;2023-04-01T00:36:13;0.37;;;0.30;;
11086;SDS011;5597;47.588;9.642;2023-04-01T00:38:41;1.00;;;0.60;;
11086;SDS011;5597;47.588;9.642;2023-04-01T00:41:07;0.90;;;0.50;;
11086;SDS011;5597;47.588;9.642;2023-04-01T00:43:35;1.23;;;0.60;;
11086;SDS011;5597;47.588;9.642;2023-04-01T00:46:01;0.33;;;0.30;;
11086;SDS011;5597;47.588;9.642;2023-04-01T00:48:31;0.83;;;0.40;;
11086;SDS011;5597;47.588;9.642;2023-04-01T00:51:05;0.90;;;0.40;;
11086;SDS011;5597;47.588;9.642;2023-04-01T00:53:34;0.87;;;0.40;;
11086;SDS011;5597;47.588;9.642;2023-04-01T00:56:27;0.63;;;0.40;;
11086;SDS011;5597;47.588;9.642;2023-04-01T00:59:11;0.50;;;0.30;;
11086;SDS011;5597;47.588;9.642;2023-04-01T01:01:41;0.90;;;0.50;;
11086;SDS011;5597;47.588;9.642;2023-04-01T01:04:07;1.50;;;0.40;;
11086;SDS011;5597;47.588;9.642;2023-04-01T01:07:03;0.80;;;0.40;;
11086;SDS011;5597;47.588;9.642;2023-04-01T01:15:25;0.87;;;0.40;;
11086;SDS011;5597;47.588;9.642;2023-04-01T01:27:06;1.13;;;0.40;;
11086;SDS011;5597;47.588;9.642;2023-04-01T01:37:59;1.37;;;0.60;;
11086;SDS011;5597;47.588;9.642;2023-04-01T01:40:28;0.90;;;0.60;;
11086;SDS011;5597;47.588;9.642;2023-04-01T01:42:58;1.33;;;0.70;;
11086;SDS011;5597;47.588;9.642;2023-04-01T01:47:56;2.10;;;0.60;;
11086;SDS011;5597;47.588;9.642;2023-04-01T01:50:25;1.23;;;0.70;;
11086;SDS011;5597;47.588;9.642;2023-04-01T01:52:51;1.03;;;0.57;;
11086;SDS011;5597;47.588;9.642;2023-04-01T01:55:37;1.33;;;0.60;;
11086;SDS011;5597;47.588;9.642;2023-04-01T02:00:51;1.27;;;0.57;;
11086;SDS011;5597;47.588;9.642;2023-04-01T02:03:21;1.27;;;0.50;;
11086;SDS011;5597;47.588;9.642;2023-04-01T02:05:49;2.43;;;0.60;;
11086;SDS011;5597;47.588;9.642;2023-04-01T02:08:21;1.67;;;0.53;;
11086;SDS011;5597;47.588;9.642;2023-04-01T02:10:56;0.70;;;0.30;;
11086;SDS011;5597;47.588;9.642;2023-04-01T02:13:34;1.30;;;0.60;;
11086;SDS011;5597;47.588;9.642;2023-04-01T02:16:08;0.90;;;0.57;;
11086;SDS011;5597;47.588;9.642;2023-04-01T02:18:46;1.03;;;0.50;;
11086;SDS011;5597;47.588;9.642;2023-04-01T02:21:15;1.47;;;0.63;;
11086;SDS011;5597;47.588;9.642;2023-04-01T02:23:43;1.13;;;0.60;;
11086;SDS011;5597;47.588;9.642;2023-04-01T02:26:11;1.43;;;0.50;;
11086;SDS011;5597;47.588;9.642;2023-04-01T02:28:38;0.60;;;0.30;;
11086;SDS011;5597;47.588;9.642;2023-04-01T02:31:06;0.63;;;0.40;;
11086;SDS011;5597;47.588;9.642;2023-04-01T02:33:33;0.87;;;0.30;;
11086;SDS011;5597;47.588;9.642;2023-04-01T02:35:59;1.40;;;0.57;;
11086;SDS011;5597;47.588;9.642;2023-04-01T02:38:25;0.47;;;0.40;;
11086;SDS011;5597;47.588;9.642;2023-04-01T02:40:52;0.80;;;0.33;;
11086;SDS011;5597;47.588;9.642;2023-04-01T02:43:23;0.97;;;0.40;;
11086;SDS011;5597;47.588;9.642;2023-04-01T02:45:49;0.63;;;0.40;;
11086;SDS011;5597;47.588;9.642;2023-04-01T02:48:15;2.10;;;0.60;;
11086;SDS011;5597;47.588;9.642;2023-04-01T02:50:40;0.40;;;0.40;;
11086;SDS011;5597;47.588;9.642;2023-04-01T02:53:06;0.37;;;0.33;;
11086;SDS011;5597;47.588;9.642;2023-04-01T02:55:32;1.40;;;0.40;;
11086;SDS011;5597;47.588;9.642;2023-04-01T02:57:58;1.00;;;0.40;;
11086;SDS011;5597;47.588;9.642;2023-04-01T03:00:24;1.00;;;0.40;;
11086;SDS011;5597;47.588;9.642;2023-04-01T03:02:50;0.53;;;0.40;;
11086;SDS011;5597;47.588;9.642;2023-04-01T03:05:16;1.00;;;0.40;;
11086;SDS011;5597;47.588;9.642;2023-04-01T03:07:42;0.73;;;0.40;;
11086;SDS011;5597;47.588;9.642;2023-04-01T03:10:08;1.43;;;0.70;;
11086;SDS011;5597;47.588;9.642;2023-04-01T03:12:34;0.60;;;0.40;;
11086;SDS011;5597;47.588;9.642;2023-04-01T03:15:00;0.97;;;0.60;;
11086;SDS011;5597;47.588;9.642;2023-04-01T03:17:25;1.90;;;0.63;;
11086;SDS011;5597;47.588;9.642;2023-04-01T03:19:51;0.63;;;0.47;;
11086;SDS011;5597;47.588;9.642;2023-04-01T03:22:16;0.63;;;0.53;;
11086;SDS011;5597;47.588;9.642;2023-04-01T03:24:45;2.23;;;0.80;;
11086;SDS011;5597;47.588;9.642;2023-04-01T03:27:14;1.13;;;0.80;;
11086;SDS011;5597;47.588;9.642;2023-04-01T03:29:40;2.37;;;0.90;;
11086;SDS011;5597;47.588;9.642;2023-04-01T03:32:05;0.73;;;0.53;;
11086;SDS011;5597;47.588;9.642;2023-04-01T03:34:31;1.67;;;0.63;;
11086;SDS011;5597;47.588;9.642;2023-04-01T03:36:56;2.03;;;0.70;;
11086;SDS011;5597;47.588;9.642;2023-04-01T03:39:22;1.97;;;0.67;;
11086;SDS011;5597;47.588;9.642;2023-04-01T03:41:48;1.80;;;0.70;;
11086;SDS011;5597;47.588;9.642;2023-04-01T03:44:14;2.43;;;0.97;;
11086;SDS011;5597;47.588;9.642;2023-04-01T03:46:40;2.07;;;0.80;;
11086;SDS011;5597;47.588;9.642;2023-04-01T03:49:06;1.57;;;0.70;;
11086;SDS011;5597;47.588;9.642;2023-04-01T03:51:40;2.10;;;0.70;;
11086;SDS011;5597;47.588;9.642;2023-04-01T03:54:07;2.50;;;0.93;;
11086;SDS011;5597;47.588;9.642;2023-04-01T03:56:33;1.33;;;0.80;;
11086;SDS011;5597;47.588;9.642;2023-04-01T03:59:01;1.10;;;0.70;;
11086;SDS011;5597;47.588;9.642;2023-04-01T04:01:28;1.17;;;0.70;;
11086;SDS011;5597;47.588;9.642;2023-04-01T04:03:54;3.17;;;0.80;;
11086;SDS011;5597;47.588;9.642;2023-04-01T04:06:21;2.83;;;0.83;;
11086;SDS011;5597;47.588;9.642;2023-04-01T04:08:47;4.17;;;1.20;;
11086;SDS011;5597;47.588;9.642;2023-04-01T04:11:13;3.97;;;1.00;;
11086;SDS011;5597;47.588;9.642;2023-04-01T04:13:39;3.10;;;0.80;;
11086;SDS011;5597;47.588;9.642;2023-04-01T04:16:05;1.33;;;0.80;;
11086;SDS011;5597;47.588;9.642;2023-04-01T04:18:31;1.20;;;0.60;;
11086;SDS011;5597;47.588;9.642;2023-04-01T04:20:57;1.27;;;0.90;;
11086;SDS011;5597;47.588;9.642;2023-04-01T04:23:23;2.33;;;0.80;;
11086;SDS011;5597;47.588;9.642;2023-04-01T04:25:59;2.33;;;0.80;;
11086;SDS011;5597;47.588;9.642;2023-04-01T04:28:30;2.00;;;0.97;;
11086;SDS011;5597;47.588;9.642;2023-04-01T04:30:56;1.87;;;0.70;;
11086;SDS011;5597;47.588;9.642;2023-04-01T04:33:22;2.50;;;0.83;;
11086;SDS011;5597;47.588;9.642;2023-04-01T04:35:48;1.07;;;0.50;;
11086;SDS011;5597;47.588;9.642;2023-04-01T04:38:15;0.90;;;0.67;;
11086;SDS011;5597;47.588;9.642;2023-04-01T04:40:41;2.27;;;0.70;;
11086;SDS011;5597;47.588;9.642;2023-04-01T04:43:11;1.33;;;0.70;;
11086;SDS011;5597;47.588;9.642;2023-04-01T04:45:37;1.77;;;0.90;;
11086;SDS011;5597;47.588;9.642;2023-04-01T04:48:03;1.60;;;0.77;;
11086;SDS011;5597;47.588;9.642;2023-04-01T04:50:29;0.93;;;0.77;;
11086;SDS011;5597;47.588;9.642;2023-04-01T04:52:55;1.40;;;0.77;;
11086;SDS011;5597;47.588;9.642;2023-04-01T04:55:20;1.43;;;0.70;;
11086;SDS011;5597;47.588;9.642;2023-04-01T04:57:46;2.07;;;0.70;;
11086;SDS011;5597;47.588;9.642;2023-04-01T05:00:12;3.50;;;1.00;;
11086;SDS011;5597;47.588;9.642;2023-04-01T05:02:38;2.10;;;0.87;;
11086;SDS011;5597;47.588;9.642;2023-04-01T05:05:03;1.77;;;0.60;;
11086;SDS011;5597;47.588;9.642;2023-04-01T05:07:30;1.63;;;0.90;;
11086;SDS011;5597;47.588;9.642;2023-04-01T05:09:55;1.57;;;0.60;;
11086;SDS011;5597;47.588;9.642;2023-04-01T05:12:21;2.03;;;0.90;;
11086;SDS011;5597;47.588;9.642;2023-04-01T05:14:47;1.73;;;0.70;;
11086;SDS011;5597;47.588;9.642;2023-04-01T05:17:12;1.47;;;0.97;;
11086;SDS011;5597;47.588;9.642;2023-04-01T05:19:38;0.83;;;0.50;;
11086;SDS011;5597;47.588;9.642;2023-04-01T05:22:04;1.17;;;0.57;;
11086;SDS011;5597;47.588;9.642;2023-04-01T05:24:31;0.93;;;0.50;;
11086;SDS011;5597;47.588;9.642;2023-04-01T05:26:58;1.33;;;0.60;;
11086;SDS011;5597;47.588;9.642;2023-04-01T05:29:24;1.47;;;0.50;;
11086;SDS011;5597;47.588;9.642;2023-04-01T05:31:50;1.80;;;0.70;;
11086;SDS011;5597;47.588;9.642;2023-04-01T05:34:16;1.50;;;0.60;;
11086;SDS011;5597;47.588;9.642;2023-04-01T05:36:42;1.80;;;0.60;;
11086;SDS011;5597;47.588;9.642;2023-04-01T05:39:08;1.53;;;0.47;;
11086;SDS011;5597;47.588;9.642;2023-04-01T05:41:34;1.77;;;0.70;;
11086;SDS011;5597;47.588;9.642;2023-04-01T05:44:01;1.23;;;0.53;;
11086;SDS011;5597;47.588;9.642;2023-04-01T05:46:27;1.93;;;0.50;;
11086;SDS011;5597;47.588;9.642;2023-04-01T05:48:53;1.33;;;0.57;;
11086;SDS011;5597;47.588;9.642;2023-04-01T05:51:19;1.43;;;0.50;;
11086;SDS011;5597;47.588;9.642;2023-04-01T05:53:44;2.67;;;0.87;;
11086;SDS011;5597;47.588;9.642;2023-04-01T05:56:10;1.10;;;0.70;;
11086;SDS011;5597;47.588;9.642;2023-04-01T05:58:36;1.10;;;0.67;;
11086;SDS011;5597;47.588;9.642;2023-04-01T06:01:03;1.33;;;0.70;;
11086;SDS011;5597;47.588;9.642;2023-04-01T06:03:33;1.23;;;0.60;;
11086;SDS011;5597;47.588;9.642;2023-04-01T06:05:59;1.20;;;0.40;;
11086;SDS011;5597;47.588;9.642;2023-04-01T06:08:26;1.87;;;0.77;;
11086;SDS011;5597;47.588;9.642;2023-04-01T06:16:53;1.77;;;0.60;;
11086;SDS011;5597;47.588;9.642;2023-04-01T06:19:31;1.03;;;0.57;;
11086;SDS011;5597;47.588;9.642;2023-04-01T06:22:19;1.03;;;0.40;;
11086;SDS011;5597;47.588;9.642;2023-04-01T06:33:51;0.43;;;0.40;;
11086;SDS011;5597;47.588;9.642;2023-04-01T06:39:26;0.87;;;0.70;;
11086;SDS011;5597;47.588;9.642;2023-04-01T06:47:32;0.80;;;0.53;;
11086;SDS011;5597;47.588;9.642;2023-04-01T06:53:19;1.37;;;0.53;;
11086;SDS011;5597;47.588;9.642;2023-04-01T06:55:52;0.83;;;0.40;;
11086;SDS011;5597;47.588;9.642;2023-04-01T06:58:37;0.60;;;0.53;;
11086;SDS011;5597;47.588;9.642;2023-04-01T07:01:08;1.40;;;0.50;;
11086;SDS011;5597;47.588;9.642;2023-04-01T07:03:39;0.93;;;0.67;;
11086;SDS011;5597;47.588;9.642;2023-04-01T07:06:20;1.27;;;0.80;;
11086;SDS011;5597;47.588;9.642;2023-04-01T07:08:55;1.70;;;0.60;;
11086;SDS011;5597;47.588;9.642;2023-04-01T07:11:29;0.93;;;0.40;;
11086;SDS011;5597;47.588;9.642;2023-04-01T07:19:32;0.87;;;0.40;;
11086;SDS011;5597;47.588;9.642;2023-04-01T07:22:26;0.87;;;0.50;;
11086;SDS011;5597;47.588;9.642;2023-04-01T07:24:57;0.60;;;0.40;;
11086;SDS011;5597;47.588;9.642;2023-04-01T07:27:30;0.80;;;0.30;;
11086;SDS011;5597;47.588;9.642;2023-04-01T07:29:56;0.40;;;0.30;;
11086;SDS011;5597;47.588;9.642;2023-04-01T07:32:25;0.80;;;0.57;;
11086;SDS011;5597;47.588;9.642;2023-04-01T07:38:08;1.10;;;0.40;;
11086;SDS011;5597;47.588;9.642;2023-04-01T07:40:48;1.40;;;0.70;;
11086;SDS011;5597;47.588;9.642;2023-04-01T07:48:39;0.87;;;0.40;;
11086;SDS011;5597;47.588;9.642;2023-04-01T07:53:57;0.60;;;0.33;;
11086;SDS011;5597;47.588;9.642;2023-04-01T07:56:31;0.50;;;0.30;;
11086;SDS011;5597;47.588;9.642;2023-04-01T07:59:22;0.43;;;0.30;;
11086;SDS011;5597;47.588;9.642;2023-04-01T08:07:08;0.37;;;0.30;;
11086;SDS011;5597;47.588;9.642;2023-04-01T08:09:42;0.30;;;0.30;;
11086;SDS011;5597;47.588;9.642;2023-04-01T08:15:15;0.30;;;0.23;;
11086;SDS011;5597;47.588;9.642;2023-04-01T08:21:00;0.60;;;0.20;;
11086;SDS011;5597;47.588;9.642;2023-04-01T08:23:30;0.20;;;0.20;;
11086;SDS011;5597;47.588;9.642;2023-04-01T08:26:18;0.30;;;0.27;;
11086;SDS011;5597;47.588;9.642;2023-04-01T08:28:52;2.17;;;1.30;;
11086;SDS011;5597;47.588;9.642;2023-04-01T08:31:39;1.23;;;0.70;;
11086;SDS011;5597;47.588;9.642;2023-04-01T08:34:45;0.40;;;0.40;;
11086;SDS011;5597;47.588;9.642;2023-04-01T08:37:26;1.97;;;0.60;;
11086;SDS011;5597;47.588;9.642;2023-04-01T08:39:58;0.30;;;0.30;;
11086;SDS011;5597;47.588;9.642;2023-04-01T08:42:42;1.50;;;0.43;;
11086;SDS011;5597;47.588;9.642;2023-04-01T08:54:30;0.20;;;0.20;;
11086;SDS011;5597;47.588;9.642;2023-04-01T09:00:13;1.63;;;0.23;;
11086;SDS011;5597;47.588;9.642;2023-04-01T09:14:57;0.30;;;0.23;;
11086;SDS011;5597;47.588;9.642;2023-04-01T09:34:43;0.30;;;0.23;;
11086;SDS011;5597;47.588;9.642;2023-04-01T09:42:44;0.30;;;0.20;;
11086;SDS011;5597;47.588;9.642;2023-04-01T09:51:21;0.67;;;0.40;;
11086;SDS011;5597;47.588;9.642;2023-04-01T10:10:03;1.10;;;1.00;;
11086;SDS011;5597;47.588;9.642;2023-04-01T10:21:39;0.77;;;0.77;;
11086;SDS011;5597;47.588;9.642;2023-04-01T10:54:36;0.33;;;0.27;;
11086;SDS011;5597;47.588;9.642;2023-04-01T11:05:42;0.30;;;0.30;;
11086;SDS011;5597;47.588;9.642;2023-04-01T11:25:14;0.30;;;0.30;;
11086;SDS011;5597;47.588;9.642;2023-04-01T11:30:53;0.30;;;0.30;;
11086;SDS011;5597;47.588;9.642;2023-04-01T11:33:54;0.30;;;0.30;;
11086;SDS011;5597;47.588;9.642;2023-04-01T11:39:11;0.37;;;0.30;;
11086;SDS011;5597;47.588;9.642;2023-04-01T11:41:59;0.20;;;0.20;;
11086;SDS011;5597;47.588;9.642;2023-04-01T11:44:27;0.30;;;0.30;;
11086;SDS011;5597;47.588;9.642;2023-04-01T11:47:16;0.90;;;0.30;;
11086;SDS011;5597;47.588;9.642;2023-04-01T11:57:46;0.20;;;0.20;;
11086;SDS011;5597;47.588;9.642;2023-04-01T12:03:15;0.30;;;0.30;;
11086;SDS011;5597;47.588;9.642;2023-04-01T12:09:12;0.20;;;0.20;;
11086;SDS011;5597;47.588;9.642;2023-04-01T12:19:56;0.30;;;0.30;;
11086;SDS011;5597;47.588;9.642;2023-04-01T12:25:14;0.30;;;0.30;;
11086;SDS011;5597;47.588;9.642;2023-04-01T12:28:06;0.43;;;0.40;;
11086;SDS011;5597;47.588;9.642;2023-04-01T12:30:50;0.40;;;0.40;;
11086;SDS011;5597;47.588;9.642;2023-04-01T12:55:40;1.13;;;0.50;;
11086;SDS011;5597;47.588;9.642;2023-04-01T13:01:09;0.30;;;0.30;;
11086;SDS011;5597;47.588;9.642;2023-04-01T13:06:23;0.20;;;0.20;;
11086;SDS011;5597;47.588;9.642;2023-04-01T13:20:44;0.53;;;0.50;;
11086;SDS011;5597;47.588;9.642;2023-04-01T13:26:19;0.30;;;0.30;;
11086;SDS011;5597;47.588;9.642;2023-04-01T13:28:54;0.50;;;0.40;;
11086;SDS011;5597;47.588;9.642;2023-04-01T13:40:51;0.97;;;0.60;;
11086;SDS011;5597;47.588;9.642;2023-04-01T13:42:47;0.50;;;0.50;;
11086;SDS011;5597;47.588;9.642;2023-04-01T13:48:33;0.50;;;0.47;;
11086;SDS011;5597;47.588;9.642;2023-04-01T13:51:18;1.07;;;0.80;;
11086;SDS011;5597;47.588;9.642;2023-04-01T13:57:13;0.70;;;0.70;;
11086;SDS011;5597;47.588;9.642;2023-04-01T14:00:03;0.60;;;0.50;;
11086;SDS011;5597;47.588;9.642;2023-04-01T14:05:50;0.60;;;0.60;;
11086;SDS011;5597;47.588;9.642;2023-04-01T14:11:17;1.13;;;0.63;;
11086;SDS011;5597;47.588;9.642;2023-04-01T14:31:30;0.80;;;0.70;;
11086;SDS011;5597;47.588;9.642;2023-04-01T14:36:49;0.63;;;0.60;;
11086;SDS011;5597;47.588;9.642;2023-04-01T14:42:37;0.93;;;0.50;;
11086;SDS011;5597;47.588;9.642;2023-04-01T14:48:33;1.23;;;0.40;;
11086;SDS011;5597;47.588;9.642;2023-04-01T14:51:15;0.30;;;0.30;;
11086;SDS011;5597;47.588;9.642;2023-04-01T14:56:47;0.30;;;0.30;;
11086;SDS011;5597;47.588;9.642;2023-04-01T14:59:27;0.30;;;0.30;;
11086;SDS011;5597;47.588;9.642;2023-04-01T15:02:37;0.83;;;0.43;;
11086;SDS011;5597;47.588;9.642;2023-04-01T15:04:56;0.37;;;0.30;;
11086;SDS011;5597;47.588;9.642;2023-04-01T15:16:00;0.50;;;0.40;;
11086;SDS011;5597;47.588;9.642;2023-04-01T15:24:14;1.30;;;0.60;;
11086;SDS011;5597;47.588;9.642;2023-04-01T15:26:50;1.03;;;0.40;;
11086;SDS011;5597;47.588;9.642;2023-04-01T15:32:02;1.27;;;0.83;;
11086;SDS011;5597;47.588;9.642;2023-04-01T15:37:31;1.90;;;0.70;;
11086;SDS011;5597;47.588;9.642;2023-04-01T15:40:20;0.50;;;0.50;;
11086;SDS011;5597;47.588;9.642;2023-04-01T15:43:13;0.67;;;0.53;;
11086;SDS011;5597;47.588;9.642;2023-04-01T16:11:23;0.40;;;0.30;;
11086;SDS011;5597;47.588;9.642;2023-04-01T16:24:39;1.33;;;0.80;;
11086;SDS011;5597;47.588;9.642;2023-04-01T16:37:53;0.40;;;0.40;;
11086;SDS011;5597;47.588;9.642;2023-04-01T16:43:21;0.37;;;0.30;;
11086;SDS011;5597;47.588;9.642;2023-04-01T16:48:59;0.77;;;0.50;;
11086;SDS011;5597;47.588;9.642;2023-04-01T16:57:03;0.40;;;0.40;;
11086;SDS011;5597;47.588;9.642;2023-04-01T17:02:16;1.10;;;0.63;;
11086;SDS011;5597;47.588;9.642;2023-04-01T17:04:51;0.40;;;0.40;;
11086;SDS011;5597;47.588;9.642;2023-04-01T17:07:35;0.30;;;0.30;;
11086;SDS011;5597;47.588;9.642;2023-04-01T17:10:42;0.60;;;0.50;;
11086;SDS011;5597;47.588;9.642;2023-04-01T17:25:07;1.17;;;0.50;;
11086;SDS011;5597;47.588;9.642;2023-04-01T17:27:48;0.40;;;0.30;;
11086;SDS011;5597;47.588;9.642;2023-04-01T17:31:03;0.63;;;0.50;;
11086;SDS011;5597;47.588;9.642;2023-04-01T17:38:54;0.63;;;0.40;;
11086;SDS011;5597;47.588;9.642;2023-04-01T17:52:31;0.77;;;0.67;;
11086;SDS011;5597;47.588;9.642;2023-04-01T17:58:03;1.10;;;0.80;;
11086;SDS011;5597;47.588;9.642;2023-04-01T18:06:40;1.60;;;1.00;;
11086;SDS011;5597;47.588;9.642;2023-04-01T18:10:03;1.10;;;1.00;;
11086;SDS011;5597;47.588;9.642;2023-04-01T18:20:54;2.33;;;1.97;;
11086;SDS011;5597;47.588;9.642;2023-04-01T18:26:05;1.10;;;0.97;;
11086;SDS011;5597;47.588;9.642;2023-04-01T18:28:47;0.97;;;0.83;;
11086;SDS011;5597;47.588;9.642;2023-04-01T18:31:17;0.70;;;0.70;;
11086;SDS011;5597;47.588;9.642;2023-04-01T18:37:12;0.57;;;0.53;;
11086;SDS011;5597;47.588;9.642;2023-04-01T18:39:48;0.70;;;0.60;;
11086;SDS011;5597;47.588;9.642;2023-04-01T18:45:03;0.57;;;0.57;;
11086;SDS011;5597;47.588;9.642;2023-04-01T18:50:42;0.50;;;0.50;;
11086;SDS011;5597;47.588;9.642;2023-04-01T18:53:23;0.60;;;0.60;;
11086;SDS011;5597;47.588;9.642;2023-04-01T18:56:03;1.03;;;0.50;;
11086;SDS011;5597;47.588;9.642;2023-04-01T18:58:34;0.60;;;0.60;;
11086;SDS011;5597;47.588;9.642;2023-04-01T19:09:22;1.03;;;0.60;;
11086;SDS011;5597;47.588;9.642;2023-04-01T19:18:02;1.00;;;0.90;;
11086;SDS011;5597;47.588;9.642;2023-04-01T19:23:53;1.33;;;1.00;;
11086;SDS011;5597;47.588;9.642;2023-04-01T19:26:37;1.37;;;0.90;;
11086;SDS011;5597;47.588;9.642;2023-04-01T19:37:43;1.97;;;1.30;;
11086;SDS011;5597;47.588;9.642;2023-04-01T19:51:33;1.23;;;0.90;;
11086;SDS011;5597;47.588;9.642;2023-04-01T19:54:30;0.67;;;0.67;;
11086;SDS011;5597;47.588;9.642;2023-04-01T19:57:30;1.23;;;0.80;;
11086;SDS011;5597;47.588;9.642;2023-04-01T20:00:14;1.20;;;1.10;;
11086;SDS011;5597;47.588;9.642;2023-04-01T20:03:03;1.40;;;1.10;;
11086;SDS011;5597;47.588;9.642;2023-04-01T20:08:42;1.17;;;1.00;;
11086;SDS011;5597;47.588;9.642;2023-04-01T20:11:38;1.30;;;1.13;;
11086;SDS011;5597;47.588;9.642;2023-04-01T20:14:44;1.40;;;1.30;;
11086;SDS011;5597;47.588;9.642;2023-04-01T20:20:24;1.17;;;1.03;;
11086;SDS011;5597;47.588;9.642;2023-04-01T20:25:30;1.30;;;1.10;;
11086;SDS011;5597;47.588;9.642;2023-04-01T20:44:46;2.10;;;0.83;;
11086;SDS011;5597;47.588;9.642;2023-04-01T20:48:00;0.90;;;0.70;;
11086;SDS011;5597;47.588;9.642;2023-04-01T20:50:49;0.70;;;0.70;;
11086;SDS011;5597;47.588;9.642;2023-04-01T20:53:20;0.93;;;0.70;;
11086;SDS011;5597;47.588;9.642;2023-04-01T21:11:46;0.80;;;0.80;;
11086;SDS011;5597;47.588;9.642;2023-04-01T21:31:45;0.80;;;0.70;;
11086;SDS011;5597;47.588;9.642;2023-04-01T22:06:40;1.17;;;0.90;;
11086;SDS011;5597;47.588;9.642;2023-04-01T22:09:55;0.97;;;0.83;;
11086;SDS011;5597;47.588;9.642;2023-04-01T22:12:29;1.03;;;0.90;;
11086;SDS011;5597;47.588;9.642;2023-04-01T22:18:04;0.60;;;0.60;;
11086;SDS011;5597;47.588;9.642;2023-04-01T22:26:10;0.70;;;0.70;;
11086;SDS011;5597;47.588;9.642;2023-04-01T22:31:13;1.43;;;1.00;;
11086;SDS011;5597;47.588;9.642;2023-04-01T22:33:53;2.37;;;1.50;;
11086;SDS011;5597;47.588;9.642;2023-04-01T22:36:43;2.83;;;2.10;;
11086;SDS011;5597;47.588;9.642;2023-04-01T22:53:03;1.20;;;1.10;;
11086;SDS011;5597;47.588;9.642;2023-04-01T22:55:44;1.47;;;1.10;;
11086;SDS011;5597;47.588;9.642;2023-04-01T22:58:14;1.10;;;1.00;;
11086;SDS011;5597;47.588;9.642;2023-04-01T23:00:52;0.87;;;0.87;;
11086;SDS011;5597;47.588;9.642;2023-04-01T23:03:24;1.07;;;0.93;;
11086;SDS011;5597;47.588;9.642;2023-04-01T23:05:56;1.07;;;0.80;;
11086;SDS011;5597;47.588;9.642;2023-04-01T23:11:27;1.20;;;1.00;;
11086;SDS011;5597;47.588;9.642;2023-04-01T23:17:12;1.10;;;0.90;;
11086;SDS011;5597;47.588;9.642;2023-04-01T23:23:08;1.27;;;1.10;;
11086;SDS011;5597;47.588;9.642;2023-04-01T23:25:47;1.00;;;0.90;;
11086;SDS011;5597;47.588;9.642;2023-04-01T23:33:54;1.60;;;1.00;;
11086;SDS011;5597;47.588;9.642;2023-04-01T23:36:24;0.90;;;0.90;;
11086;SDS011;5597;47.588;9.642;2023-04-01T23:38:50;1.10;;;1.00;;
11086;SDS011;5597;47.588;9.642;2023-04-01T23:41:23;1.10;;;1.00;;
11086;SDS011;5597;47.588;9.642;2023-04-01T23:44:14;0.97;;;0.90;;
11086;SDS011;5597;47.588;9.642;2023-04-01T23:46:40;1.30;;;1.10;;
11086;SDS011;5597;47.588;9.642;2023-04-01T23:49:11;1.10;;;1.00;;
11086;SDS011;5597;47.588;9.642;2023-04-01T23:51:55;1.23;;;1.00;;
11086;SDS011;5597;47.588;9.642;2023-04-01T23:54:31;1.07;;;0.97;;
11086;SDS011;5597;47.588;9.642;2023-04-01T23:56:58;2.70;;;0.90;;
11086;SDS011;5597;47.588;9.642;2023-04-01T23:59:30;1.30;;;1.03;;
